Kenington, Connecticut
Current Conditions -  °F | °C
As of 1:53 AM on Tuesday 21 Oct 2014 (Local Time) from KMMK Reporting Station
Broken Clouds Broken Clouds  
Wind Chill: 43°   Ceiling: 5500
Heat Index: 43°   Visibility: 9mi
Dew Point: 40°   Wind: 0mph
Humidity: 89%   Direction: NA
Pressure: 29.97"   Gusts: NA
Location:  41.611°N, 72.7774°W
Report Text: KMMK 210553Z AUTO 00000KT 9SM BKN055 06/04 A2997 RMK AO2 SLP150 T00610044 10089 20056 56007 TSNO
Loading
Personal Weather Stations






























Interactive Weather Map
Tropical Storm Tracking
New forecast layout! Learn more

10-Day Weather Forecast

Advertisements
Track Severe Weather on mobile